Time;durP1;ratioP1;P1;durP2;ratioP2;P2;SDS_P1;SDS_P2;PMS_P1;PMS_P2;Temp;Humidity;BMP_temperature;BMP_pressure;BME280_temperature;BME280_humidity;BME280_pressure;Samples;Min_cycle;Max_cycle;Signal;HPM_P1;HPM_P2
2021/12/23 00:00:45;;;;;;;23.73;15.63;;;-4.80;99.90;;;;;;4985018;28;20576;-73
2021/12/23 00:03:10;;;;;;;20.73;15.15;;;-4.90;99.90;;;;;;4991619;28;20084;-73
2021/12/23 00:05:36;;;;;;;22.13;19.92;;;-4.80;99.90;;;;;;4973603;28;20405;-74
2021/12/23 00:08:01;;;;;;;25.23;16.75;;;-4.60;99.90;;;;;;4984585;28;20026;-74
2021/12/23 00:10:27;;;;;;;25.08;17.25;;;-4.90;99.90;;;;;;4979494;28;20041;-74
2021/12/23 00:12:53;;;;;;;23.15;16.23;;;-4.90;99.90;;;;;;4980471;28;20394;-74
2021/12/23 00:15:32;;;;;;;21.63;15.30;;;-4.90;99.90;;;;;;4973077;28;20031;-75
2021/12/23 00:18:16;;;;;;;23.77;16.70;;;-4.90;99.90;;;;;;4985131;28;20069;-74
2021/12/23 00:25:47;;;;;;;22.25;15.05;;;-4.70;99.90;;;;;;4982311;28;20026;-74
2021/12/23 00:28:12;;;;;;;23.83;14.80;;;-4.70;99.90;;;;;;4986089;28;20391;-75
2021/12/23 00:30:38;;;;;;;23.67;15.43;;;-4.80;99.90;;;;;;4982122;28;20026;-75
2021/12/23 00:33:04;;;;;;;24.27;15.60;;;-4.80;99.90;;;;;;4974356;28;20018;-74
2021/12/23 00:35:29;;;;;;;22.20;15.18;;;-4.70;99.90;;;;;;4972897;28;20058;-75
2021/12/23 00:38:00;;;;;;;23.77;14.80;;;-4.40;99.90;;;;;;4988076;28;20026;-75
2021/12/23 00:40:26;;;;;;;22.00;15.25;;;-4.60;99.90;;;;;;4983553;28;20046;-75
2021/12/23 00:42:52;;;;;;;24.02;21.42;;;-4.60;99.90;;;;;;4978177;28;20104;-75
2021/12/23 00:45:18;;;;;;;24.95;16.95;;;-4.60;99.90;;;;;;4981739;28;20043;-75
2021/12/23 00:47:43;;;;;;;22.95;20.45;;;-4.50;99.90;;;;;;4984601;28;20424;-75
2021/12/23 00:50:09;;;;;;;28.33;17.02;;;-4.50;99.90;;;;;;4974220;28;20030;-75
2021/12/23 00:52:37;;;;;;;27.52;17.38;;;-4.50;99.90;;;;;;4990022;28;20055;-75
2021/12/23 00:55:04;;;;;;;24.63;20.58;;;-4.60;99.90;;;;;;4986657;28;20022;-74
2021/12/23 00:57:31;;;;;;;25.25;16.85;;;-4.50;99.90;;;;;;4983341;28;20022;-75
2021/12/23 00:59:58;;;;;;;23.10;20.80;;;-4.50;99.90;;;;;;4984785;28;20472;-75
2021/12/23 01:02:29;;;;;;;26.52;17.88;;;-4.50;99.90;;;;;;4993496;28;20026;-76
2021/12/23 01:04:55;;;;;;;25.85;17.00;;;-4.50;99.90;;;;;;4983944;28;20393;-75
2021/12/23 01:07:21;;;;;;;25.88;22.23;;;-4.60;99.90;;;;;;4988388;28;20102;-76
2021/12/23 01:09:47;;;;;;;25.42;22.73;;;-4.60;99.90;;;;;;4987362;28;20492;-76
2021/12/23 01:12:15;;;;;;;30.23;19.13;;;-4.50;99.90;;;;;;4989035;28;20114;-75
2021/12/23 01:14:52;;;;;;;24.52;21.88;;;-4.50;99.90;;;;;;4988892;28;20476;-74
2021/12/23 01:19:50;;;;;;;26.38;18.85;;;-4.40;99.90;;;;;;4984031;28;20076;-74
2021/12/23 01:22:16;;;;;;;28.23;18.48;;;-4.50;99.90;;;;;;4984596;28;20101;-74
2021/12/23 01:24:42;;;;;;;26.10;23.17;;;-4.40;99.90;;;;;;4980848;28;20033;-74
2021/12/23 01:27:07;;;;;;;25.23;22.63;;;-4.40;99.90;;;;;;4975019;28;20031;-73
2021/12/23 01:29:33;;;;;;;49.22;31.70;;;-4.40;99.90;;;;;;4989112;28;20034;-73
2021/12/23 01:32:03;;;;;;;39.88;26.83;;;-4.30;99.90;;;;;;4984079;28;20409;-74
2021/12/23 01:34:28;;;;;;;29.33;25.52;;;-4.30;99.90;;;;;;4982323;28;20492;-74
2021/12/23 01:36:54;;;;;;;25.63;22.83;;;-4.40;99.90;;;;;;4986550;28;20031;-73
2021/12/23 01:39:19;;;;;;;27.02;18.65;;;-4.30;99.90;;;;;;4974794;28;20442;-73
2021/12/23 01:41:45;;;;;;;28.50;19.48;;;-4.20;99.90;;;;;;4983481;28;20045;-74
2021/12/23 01:44:11;;;;;;;29.88;19.30;;;-4.30;99.90;;;;;;4980917;28;20022;-74
2021/12/23 01:46:36;;;;;;;27.73;24.17;;;-4.30;99.90;;;;;;4986958;28;20027;-74
2021/12/23 01:49:04;;;;;;;28.13;18.65;;;-4.30;99.90;;;;;;4990560;28;20477;-74
2021/12/23 01:51:29;;;;;;;28.40;19.40;;;-4.20;99.90;;;;;;4984532;28;20022;-74
2021/12/23 01:53:55;;;;;;;26.95;24.15;;;-4.30;99.90;;;;;;4982147;28;20580;-74
2021/12/23 01:56:23;;;;;;;27.52;18.13;;;-4.30;99.90;;;;;;4986757;28;20030;-75
2021/12/23 01:58:49;;;;;;;25.10;18.23;;;-4.30;99.90;;;;;;4987446;28;20125;-74
2021/12/23 02:01:15;;;;;;;25.63;22.73;;;-4.40;99.90;;;;;;4973087;28;20113;-74
2021/12/23 02:03:41;;;;;;;24.95;22.42;;;-4.40;99.90;;;;;;4976569;28;20466;-74
2021/12/23 02:06:06;;;;;;;30.88;20.05;;;-4.30;99.90;;;;;;4986278;28;20034;-73
2021/12/23 02:08:33;;;;;;;27.67;19.45;;;-4.30;99.90;;;;;;4987306;28;20113;-73
2021/12/23 02:11:00;;;;;;;25.95;18.40;;;-4.40;99.90;;;;;;4982276;28;20038;-73
2021/12/23 02:13:25;;;;;;;30.20;19.75;;;-4.40;99.90;;;;;;4980309;28;20023;-74
2021/12/23 02:15:51;;;;;;;26.77;23.55;;;-4.40;99.90;;;;;;4985019;28;20027;-75
2021/12/23 02:18:16;;;;;;;26.80;23.77;;;-4.40;99.90;;;;;;4977115;28;20023;-75
2021/12/23 02:20:42;;;;;;;26.25;23.52;;;-4.40;99.90;;;;;;4994781;28;20124;-74
2021/12/23 02:23:09;;;;;;;27.38;18.77;;;-4.40;99.90;;;;;;4980081;28;20034;-74
2021/12/23 02:25:35;;;;;;;25.70;23.00;;;-4.40;99.90;;;;;;4990160;28;20035;-74
2021/12/23 02:28:07;;;;;;;30.65;19.92;;;-4.40;99.90;;;;;;4973957;28;20023;-74
2021/12/23 02:30:35;;;;;;;29.13;19.30;;;-4.30;99.90;;;;;;4974991;28;20023;-74
2021/12/23 02:33:00;;;;;;;33.63;21.10;;;-4.40;99.90;;;;;;4977972;28;20045;-74
2021/12/23 02:35:26;;;;;;;28.67;25.50;;;-4.40;99.90;;;;;;4984990;28;20529;-74
2021/12/23 02:37:52;;;;;;;28.17;19.73;;;-4.40;99.90;;;;;;4987945;28;20394;-75
2021/12/23 02:40:25;;;;;;;30.40;21.13;;;-4.30;99.90;;;;;;4983069;28;20026;-75
2021/12/23 02:42:51;;;;;;;29.45;26.42;;;-4.30;99.90;;;;;;4990471;28;20033;-76
2021/12/23 02:45:16;;;;;;;28.90;25.80;;;-4.30;99.90;;;;;;4973614;28;20023;-76
2021/12/23 02:47:42;;;;;;;32.97;21.17;;;-4.30;99.90;;;;;;4988137;28;20037;-76
2021/12/23 02:50:08;;;;;;;31.17;20.92;;;-4.20;99.90;;;;;;4964514;28;20556;-74
2021/12/23 02:52:34;;;;;;;32.88;21.95;;;-4.20;99.90;;;;;;4986777;28;20033;-75
2021/12/23 02:55:00;;;;;;;28.80;25.83;;;-4.20;99.90;;;;;;4973265;28;20023;-75
2021/12/23 02:57:25;;;;;;;30.75;20.60;;;-4.30;99.90;;;;;;4978775;28;20023;-75
2021/12/23 02:59:51;;;;;;;26.55;23.75;;;-4.20;99.90;;;;;;4994163;28;20022;-76
2021/12/23 03:02:17;;;;;;;28.55;25.35;;;-4.30;99.90;;;;;;4976798;28;20031;-75
2021/12/23 03:04:43;;;;;;;29.42;19.40;;;-4.30;99.90;;;;;;4974316;28;20031;-75
2021/12/23 03:07:09;;;;;;;30.83;19.45;;;-4.30;99.90;;;;;;4987572;28;20042;-75
2021/12/23 03:09:35;;;;;;;28.00;24.65;;;-4.30;99.90;;;;;;4984057;28;20464;-74
2021/12/23 03:12:00;;;;;;;31.05;19.58;;;-4.30;99.90;;;;;;4980237;28;20030;-75
2021/12/23 03:14:26;;;;;;;27.80;24.90;;;-4.30;99.90;;;;;;4982823;28;20370;-75
2021/12/23 03:16:51;;;;;;;29.50;20.35;;;-4.20;99.90;;;;;;4989368;28;20022;-74
2021/12/23 03:19:17;;;;;;;32.28;28.75;;;-4.20;99.90;;;;;;4974155;28;20027;-75
2021/12/23 03:21:45;;;;;;;38.00;23.95;;;-4.30;99.90;;;;;;4977183;28;20022;-75
2021/12/23 03:24:12;;;;;;;37.75;25.63;;;-4.40;99.90;;;;;;4980959;28;20513;-74
2021/12/23 03:26:38;;;;;;;35.63;23.67;;;-4.40;99.90;;;;;;4974030;28;20031;-74
2021/12/23 03:29:07;;;;;;;34.45;22.17;;;-4.40;99.90;;;;;;4985342;28;20507;-74
2021/12/23 03:31:33;;;;;;;29.92;20.20;;;-4.40;99.90;;;;;;4973782;28;20105;-74
2021/12/23 03:33:59;;;;;;;32.67;20.80;;;-4.60;99.90;;;;;;4985250;28;20118;-73
2021/12/23 03:36:24;;;;;;;29.23;26.13;;;-4.60;99.90;;;;;;4981532;28;20027;-74
2021/12/23 03:38:50;;;;;;;30.95;20.73;;;-4.60;99.90;;;;;;4981546;28;20019;-73
2021/12/23 03:41:15;;;;;;;27.83;24.80;;;-4.60;99.90;;;;;;4987372;28;20034;-73
2021/12/23 03:43:42;;;;;;;51.25;30.00;;;-4.50;99.90;;;;;;4985211;28;20061;-73
2021/12/23 03:46:07;;;;;;;49.83;30.25;;;-4.50;99.90;;;;;;4979194;28;20501;-73
2021/12/23 03:48:33;;;;;;;51.30;31.83;;;-4.50;99.90;;;;;;4982579;28;20023;-73
2021/12/23 03:50:59;;;;;;;39.47;34.80;;;-4.50;99.90;;;;;;4961557;28;20027;-73
2021/12/23 03:53:24;;;;;;;44.83;26.25;;;-4.50;99.90;;;;;;4972838;28;20166;-73
2021/12/23 03:55:50;;;;;;;38.20;24.77;;;-4.50;99.90;;;;;;4986923;28;20102;-73
2021/12/23 03:58:15;;;;;;;30.17;26.85;;;-4.50;99.90;;;;;;4985272;28;20041;-74
2021/12/23 04:00:42;;;;;;;31.27;21.23;;;-4.50;99.90;;;;;;4987197;28;20026;-73
2021/12/23 04:03:07;;;;;;;33.25;22.15;;;-4.40;99.90;;;;;;4983863;28;20030;-73
2021/12/23 04:05:33;;;;;;;33.05;21.27;;;-4.30;99.90;;;;;;4980345;28;20031;-74
2021/12/23 04:07:59;;;;;;;34.70;21.98;;;-4.40;99.90;;;;;;4992112;28;20111;-74
2021/12/23 04:10:24;;;;;;;31.98;22.20;;;-4.30;99.90;;;;;;4980070;28;20085;-73
2021/12/23 04:12:51;;;;;;;31.10;21.00;;;-4.40;99.90;;;;;;4980992;28;20043;-74
2021/12/23 04:15:16;;;;;;;30.75;27.45;;;-4.40;99.90;;;;;;4972417;28;20022;-74
2021/12/23 04:17:43;;;;;;;34.15;22.40;;;-4.30;99.90;;;;;;4973639;28;20440;-74
2021/12/23 04:20:17;;;;;;;34.05;22.58;;;-4.30;99.90;;;;;;4973227;28;20362;-74
2021/12/23 04:22:44;;;;;;;37.47;32.53;;;-4.30;99.90;;;;;;4973630;28;20120;-74
2021/12/23 04:25:10;;;;;;;43.95;27.75;;;-4.40;99.90;;;;;;4984316;28;20094;-73
2021/12/23 04:27:36;;;;;;;36.75;32.75;;;-4.60;99.90;;;;;;4973638;28;20042;-73
2021/12/23 04:30:02;;;;;;;36.40;30.98;;;-4.60;99.90;;;;;;4979465;28;20044;-74
2021/12/23 04:32:28;;;;;;;36.97;23.58;;;-4.50;99.90;;;;;;4979112;28;20027;-74
2021/12/23 04:34:53;;;;;;;37.33;23.77;;;-4.60;99.90;;;;;;4985264;28;20038;-75
2021/12/23 04:37:19;;;;;;;39.78;23.88;;;-4.50;99.90;;;;;;4991764;28;20025;-75
2021/12/23 04:39:44;;;;;;;34.70;29.50;;;-4.50;99.90;;;;;;4972996;28;20031;-75
2021/12/23 04:42:10;;;;;;;34.80;22.48;;;-4.50;99.90;;;;;;4985845;28;20030;-74
2021/12/23 04:44:35;;;;;;;37.72;24.30;;;-4.50;99.90;;;;;;4979601;28;20666;-74
2021/12/23 04:47:01;;;;;;;37.42;25.15;;;-4.50;99.90;;;;;;4980043;28;20034;-75
2021/12/23 04:49:26;;;;;;;38.42;25.50;;;-4.40;99.90;;;;;;4985023;28;20508;-75
2021/12/23 04:51:52;;;;;;;36.47;24.35;;;-4.50;99.90;;;;;;4973448;28;20101;-75
2021/12/23 04:54:17;;;;;;;34.05;30.35;;;-4.40;99.90;;;;;;4986806;28;20374;-75
2021/12/23 04:56:43;;;;;;;44.75;26.88;;;-4.40;99.90;;;;;;4984054;28;20512;-75
2021/12/23 04:59:08;;;;;;;43.85;26.13;;;-4.40;99.90;;;;;;4978439;28;20455;-74
2021/12/23 05:01:34;;;;;;;40.47;24.83;;;-4.40;99.90;;;;;;4979697;28;20034;-74
2021/12/23 05:04:00;;;;;;;34.20;30.50;;;-4.40;99.90;;;;;;4986044;28;20041;-75
2021/12/23 05:06:26;;;;;;;35.90;31.27;;;-4.40;99.90;;;;;;4984852;28;20377;-75
2021/12/23 05:08:51;;;;;;;41.60;25.38;;;-4.20;99.90;;;;;;4978189;28;20057;-74
2021/12/23 05:11:17;;;;;;;40.03;25.17;;;-4.20;99.90;;;;;;4981240;28;20031;-74
2021/12/23 05:13:45;;;;;;;39.47;23.27;;;-4.20;99.90;;;;;;4989444;28;20022;-74
2021/12/23 05:16:10;;;;;;;36.40;24.05;;;-4.30;99.90;;;;;;4980261;28;20535;-75
2021/12/23 05:18:36;;;;;;;37.75;23.85;;;-4.30;99.90;;;;;;4974793;28;20026;-74
2021/12/23 05:21:05;;;;;;;43.63;27.05;;;-4.20;99.90;;;;;;4982629;28;20065;-74
2021/12/23 05:23:31;;;;;;;36.55;31.55;;;-4.20;99.90;;;;;;4979503;28;20087;-75
2021/12/23 05:25:57;;;;;;;42.28;26.95;;;-4.10;99.90;;;;;;4980497;28;20125;-75
2021/12/23 05:28:22;;;;;;;36.58;31.50;;;-4.10;99.90;;;;;;4986252;28;20041;-75
2021/12/23 05:30:48;;;;;;;37.75;33.38;;;-4.10;99.90;;;;;;4983660;28;20081;-75
2021/12/23 05:33:13;;;;;;;39.28;34.05;;;-4.00;99.90;;;;;;4987042;28;20034;-75
2021/12/23 05:35:39;;;;;;;39.15;34.95;;;-3.80;99.90;;;;;;4985062;28;20365;-75
2021/12/23 05:38:05;;;;;;;43.88;28.30;;;-3.90;99.90;;;;;;4982934;28;20027;-75
2021/12/23 05:40:32;;;;;;;39.53;34.72;;;-3.80;99.90;;;;;;4985538;28;20065;-75
2021/12/23 05:42:58;;;;;;;43.97;28.83;;;-3.90;99.90;;;;;;4989839;28;20025;-75
2021/12/23 05:45:24;;;;;;;39.38;34.72;;;-3.80;99.90;;;;;;4987395;28;20523;-75
2021/12/23 05:47:51;;;;;;;38.20;34.03;;;-3.80;99.90;;;;;;4977505;28;20035;-75
2021/12/23 05:50:19;;;;;;;42.28;36.75;;;-3.90;99.90;;;;;;4975075;28;20089;-75
2021/12/23 05:52:45;;;;;;;60.83;34.08;;;-3.80;99.90;;;;;;4976415;28;20023;-75
2021/12/23 05:55:12;;;;;;;40.17;35.85;;;-3.90;99.90;;;;;;4988648;28;20023;-75
2021/12/23 05:57:39;;;;;;;49.83;29.98;;;-3.80;99.90;;;;;;4981218;28;20459;-75
2021/12/23 06:00:09;;;;;;;47.20;30.88;;;-3.80;99.90;;;;;;4983599;28;20027;-75
2021/12/23 06:02:34;;;;;;;46.03;30.30;;;-3.80;99.90;;;;;;4963282;28;20105;-75
2021/12/23 06:05:00;;;;;;;55.72;33.20;;;-3.80;99.90;;;;;;4975820;28;20054;-75
2021/12/23 06:07:25;;;;;;;47.50;39.10;;;-3.80;99.90;;;;;;4989085;28;20519;-75
2021/12/23 06:09:51;;;;;;;53.58;33.03;;;-3.80;99.90;;;;;;4987212;28;20041;-75
2021/12/23 06:12:16;;;;;;;54.03;32.83;;;-3.80;99.90;;;;;;4980865;28;20038;-75
2021/12/23 06:14:42;;;;;;;52.55;32.85;;;-3.80;99.90;;;;;;4995303;28;20496;-75
2021/12/23 06:17:08;;;;;;;54.33;34.42;;;-3.80;99.90;;;;;;4976190;28;20058;-75
2021/12/23 06:19:33;;;;;;;45.90;39.03;;;-3.80;99.90;;;;;;4974733;28;20053;-75
2021/12/23 06:21:59;;;;;;;47.10;40.33;;;-3.80;99.90;;;;;;4988793;28;20035;-75
2021/12/23 06:24:24;;;;;;;46.50;39.88;;;-3.80;99.90;;;;;;4993244;28;20029;-75
2021/12/23 06:26:50;;;;;;;45.75;39.75;;;-3.80;99.90;;;;;;4981586;28;20038;-75
2021/12/23 06:29:15;;;;;;;55.95;32.78;;;-3.80;99.90;;;;;;4982034;28;20038;-76
2021/12/23 06:31:41;;;;;;;52.03;42.78;;;-3.90;99.90;;;;;;4989954;28;20027;-75
2021/12/23 06:34:07;;;;;;;46.88;39.92;;;-3.90;99.90;;;;;;4986849;28;20050;-75
2021/12/23 06:36:32;;;;;;;48.35;42.20;;;-3.80;99.90;;;;;;4979966;28;20030;-75
2021/12/23 06:38:58;;;;;;;48.38;41.28;;;-3.90;99.90;;;;;;4982308;28;20027;-76
2021/12/23 06:41:24;;;;;;;53.95;32.60;;;-3.90;99.90;;;;;;4988724;28;20027;-76
2021/12/23 06:43:49;;;;;;;56.97;35.08;;;-3.90;99.90;;;;;;4986930;28;20026;-76
2021/12/23 06:46:15;;;;;;;51.40;43.10;;;-3.90;99.90;;;;;;4980790;28;20388;-75
2021/12/23 06:48:40;;;;;;;48.25;42.17;;;-3.90;99.90;;;;;;4980532;28;20030;-75
2021/12/23 06:51:06;;;;;;;52.58;34.17;;;-3.90;99.90;;;;;;4980116;28;20038;-75
2021/12/23 06:53:32;;;;;;;49.05;43.15;;;-3.90;99.90;;;;;;4982451;28;20081;-76
2021/12/23 06:55:57;;;;;;;60.17;34.08;;;-3.90;99.90;;;;;;4987514;28;20030;-76
2021/12/23 06:58:24;;;;;;;55.92;34.97;;;-3.90;99.90;;;;;;4974343;28;20058;-76
2021/12/23 07:00:51;;;;;;;49.25;41.22;;;-3.90;99.90;;;;;;4985093;28;20101;-76
2021/12/23 07:03:17;;;;;;;46.92;41.17;;;-3.90;99.90;;;;;;4981602;28;20567;-76
2021/12/23 07:05:43;;;;;;;48.50;41.25;;;-3.90;99.90;;;;;;4987235;28;20066;-76
2021/12/23 07:08:23;;;;;;;56.50;34.15;;;-3.90;99.90;;;;;;4986570;28;20100;-76
2021/12/23 07:10:49;;;;;;;51.65;42.90;;;-3.90;99.90;;;;;;4970346;28;20030;-77
2021/12/23 07:13:14;;;;;;;47.33;41.97;;;-3.90;99.90;;;;;;4992774;28;20022;-76
2021/12/23 07:15:40;;;;;;;47.95;42.70;;;-3.90;99.90;;;;;;4980607;28;20049;-76
2021/12/23 07:18:06;;;;;;;48.67;41.83;;;-4.00;99.90;;;;;;4979291;28;20023;-76
2021/12/23 07:20:31;;;;;;;64.20;39.42;;;-3.90;99.90;;;;;;4986641;28;20185;-76
2021/12/23 07:22:57;;;;;;;68.90;41.92;;;-3.90;99.90;;;;;;4974024;28;20401;-76
2021/12/23 07:25:22;;;;;;;72.78;44.35;;;-3.90;99.90;;;;;;4980653;28;20030;-76
2021/12/23 07:27:48;;;;;;;53.83;34.75;;;-3.90;99.90;;;;;;4979090;28;20489;-76
2021/12/23 07:30:18;;;;;;;51.08;43.00;;;-4.00;99.90;;;;;;4986852;28;20038;-76
2021/12/23 07:32:44;;;;;;;49.20;42.75;;;-4.00;99.90;;;;;;4987637;28;20026;-76
2021/12/23 07:35:10;;;;;;;50.50;42.20;;;-4.00;99.90;;;;;;4986727;28;20031;-74
2021/12/23 07:37:36;;;;;;;53.25;33.88;;;-4.00;99.90;;;;;;4985597;28;20404;-75
2021/12/23 07:40:03;;;;;;;49.05;42.63;;;-4.00;99.90;;;;;;4981077;28;20035;-75
2021/12/23 07:42:31;;;;;;;50.92;42.25;;;-3.90;99.90;;;;;;4979998;28;20739;-76
2021/12/23 07:44:57;;;;;;;51.22;42.58;;;-3.90;99.90;;;;;;4991773;28;20134;-76
2021/12/23 07:47:23;;;;;;;52.70;34.33;;;-3.90;99.90;;;;;;4978942;28;20502;-76
2021/12/23 07:49:48;;;;;;;62.60;36.95;;;-3.90;99.90;;;;;;4973563;28;20070;-76
2021/12/23 07:52:14;;;;;;;56.20;44.40;;;-3.90;99.90;;;;;;4985400;28;20057;-76
2021/12/23 07:54:40;;;;;;;57.90;37.20;;;-3.80;99.90;;;;;;4980508;28;20165;-76
2021/12/23 07:57:07;;;;;;;63.10;37.50;;;-3.90;99.90;;;;;;4992106;28;20097;-76
2021/12/23 07:59:33;;;;;;;62.05;38.25;;;-3.90;99.90;;;;;;4984428;28;20019;-76
2021/12/23 08:01:58;;;;;;;67.55;39.83;;;-3.80;99.90;;;;;;4975605;28;20022;-76
2021/12/23 08:04:25;;;;;;;66.07;38.45;;;-3.80;99.90;;;;;;4981622;28;20033;-76
2021/12/23 08:06:55;;;;;;;78.13;46.13;;;-3.80;99.90;;;;;;4986334;28;20037;-74
2021/12/23 08:09:21;;;;;;;63.88;39.50;;;-3.80;99.90;;;;;;4991056;28;20022;-75
2021/12/23 08:11:47;;;;;;;64.53;38.78;;;-3.80;99.90;;;;;;4975742;28;20530;-75
2021/12/23 08:14:13;;;;;;;67.60;39.17;;;-3.70;99.90;;;;;;4972059;28;20027;-75
2021/12/23 08:16:39;;;;;;;64.32;38.80;;;-3.70;99.90;;;;;;4986344;28;20026;-74
2021/12/23 08:19:04;;;;;;;60.55;48.50;;;-3.80;99.90;;;;;;4980796;28;20390;-74
2021/12/23 08:21:30;;;;;;;59.10;48.55;;;-3.70;99.90;;;;;;4978149;28;20019;-75
2021/12/23 08:23:56;;;;;;;64.38;51.72;;;-3.70;99.90;;;;;;4983736;28;20023;-74
2021/12/23 08:26:27;;;;;;;61.15;50.15;;;-3.70;99.90;;;;;;4986132;28;20038;-74
2021/12/23 08:28:53;;;;;;;67.72;52.80;;;-3.60;99.90;;;;;;4982319;28;20110;-74
2021/12/23 08:31:21;;;;;;;97.13;54.60;;;-3.60;99.90;;;;;;4979276;28;20019;-74
2021/12/23 08:33:47;;;;;;;69.47;55.67;;;-3.50;99.90;;;;;;4981643;28;20073;-74
2021/12/23 08:36:13;;;;;;;74.80;45.92;;;-3.50;99.90;;;;;;4984631;28;20023;-75
2021/12/23 08:38:40;;;;;;;60.78;50.10;;;-3.40;99.90;;;;;;4982560;28;20018;-75
2021/12/23 08:41:06;;;;;;;66.90;39.25;;;-3.40;99.90;;;;;;4979278;28;20042;-74
2021/12/23 08:43:31;;;;;;;56.47;46.65;;;-3.50;99.90;;;;;;4982815;28;20022;-74
2021/12/23 08:45:57;;;;;;;63.17;38.67;;;-3.40;99.90;;;;;;4984565;28;20477;-74
2021/12/23 08:48:22;;;;;;;62.80;48.58;;;-3.30;99.90;;;;;;4982042;28;20026;-74
2021/12/23 08:50:48;;;;;;;60.78;49.53;;;-3.30;99.90;;;;;;4977983;28;20040;-75
2021/12/23 08:53:13;;;;;;;66.95;38.03;;;-3.40;99.90;;;;;;4982613;28;20493;-75
2021/12/23 08:55:39;;;;;;;56.85;46.35;;;-3.30;99.90;;;;;;4985806;28;20023;-75
2021/12/23 08:58:04;;;;;;;59.00;48.20;;;-3.30;99.90;;;;;;4982169;28;20376;-75
2021/12/23 09:00:31;;;;;;;62.85;37.85;;;-3.30;99.90;;;;;;4979003;28;20034;-75
2021/12/23 09:02:57;;;;;;;67.72;38.25;;;-3.20;99.90;;;;;;4981584;28;20058;-74
2021/12/23 09:05:23;;;;;;;60.05;37.40;;;-3.10;99.90;;;;;;4985443;28;20457;-75
2021/12/23 09:07:49;;;;;;;56.88;45.75;;;-3.10;99.90;;;;;;4972660;28;20030;-75
2021/12/23 09:10:15;;;;;;;59.05;46.75;;;-3.00;99.90;;;;;;4976535;28;20038;-75
2021/12/23 09:12:41;;;;;;;55.08;45.25;;;-3.00;99.90;;;;;;4986229;28;20089;-75
2021/12/23 09:15:08;;;;;;;58.63;47.17;;;-3.00;99.90;;;;;;4989979;28;20022;-75
2021/12/23 09:17:33;;;;;;;57.30;46.60;;;-2.90;99.90;;;;;;4984414;28;20425;-75
2021/12/23 09:19:59;;;;;;;57.40;45.00;;;-2.90;99.90;;;;;;4981672;28;20061;-75
2021/12/23 09:22:24;;;;;;;56.00;44.13;;;-2.90;99.90;;;;;;4994562;28;20030;-75
2021/12/23 09:24:53;;;;;;;56.45;44.55;;;-2.80;99.90;;;;;;4982515;28;20030;-75
2021/12/23 09:34:59;;;;;;;;;;;-2.70;99.90;;;;;;4982993;28;20399;-75
2021/12/23 09:37:26;;;;;;;64.15;36.60;;;-2.70;99.90;;;;;;4983068;28;19953;-75
2021/12/23 09:39:54;;;;;;;57.10;44.95;;;-2.60;99.90;;;;;;4987700;28;20386;-74
2021/12/23 09:42:26;;;;;;;60.72;46.05;;;-2.50;99.90;;;;;;4987672;28;20408;-75
2021/12/23 09:44:57;;;;;;;63.83;48.00;;;-2.50;99.90;;;;;;4977387;28;20388;-75
2021/12/23 09:47:26;;;;;;;54.17;44.13;;;-2.40;99.90;;;;;;4981058;28;20066;-75
2021/12/23 09:49:53;;;;;;;60.30;46.88;;;-2.50;99.90;;;;;;4985222;28;20030;-75
2021/12/23 09:52:19;;;;;;;55.53;45.13;;;-2.50;99.90;;;;;;4988993;28;20026;-76
2021/12/23 09:54:45;;;;;;;54.70;43.47;;;-2.40;99.90;;;;;;4975652;28;20031;-76
2021/12/23 09:57:12;;;;;;;57.55;45.28;;;-2.40;99.90;;;;;;4977733;28;20461;-76
2021/12/23 09:59:37;;;;;;;52.85;43.35;;;-2.40;99.90;;;;;;4986591;28;20027;-76
2021/12/23 10:02:03;;;;;;;55.15;42.65;;;-2.40;99.90;;;;;;4988462;28;20026;-76
2021/12/23 10:04:29;;;;;;;55.85;43.40;;;-2.40;99.90;;;;;;4984299;28;20054;-76
2021/12/23 10:06:57;;;;;;;55.03;42.85;;;-2.40;99.90;;;;;;4980875;28;20409;-76
2021/12/23 10:09:41;;;;;;;54.70;43.95;;;-2.30;99.90;;;;;;4984272;28;20054;-76
2021/12/23 10:31:10;;;;;;;54.65;43.90;;;-2.10;99.90;;;;;;4981599;28;20042;-75
2021/12/23 10:37:05;;;;;;;52.85;43.67;;;-2.00;99.90;;;;;;4986234;28;20508;-74
2021/12/23 10:39:25;;;;;;;54.30;42.15;;;-2.00;99.90;;;;;;4980106;28;20061;-75
2021/12/23 10:41:50;;;;;;;53.58;42.05;;;-1.90;99.90;;;;;;4979177;28;20046;-75
2021/12/23 10:44:28;;;;;;;50.15;41.72;;;-1.90;99.90;;;;;;4990074;28;20089;-75
2021/12/23 10:46:54;;;;;;;53.95;44.75;;;-1.90;99.90;;;;;;4984407;28;20117;-75
2021/12/23 10:49:32;;;;;;;56.42;44.90;;;-1.90;99.90;;;;;;4982391;28;20548;-75
2021/12/23 10:52:15;;;;;;;54.65;42.75;;;-1.90;99.90;;;;;;4987314;28;20026;-75
2021/12/23 11:00:22;;;;;;;55.40;42.75;;;-1.80;99.90;;;;;;4977151;28;20503;-75
2021/12/23 11:03:00;;;;;;;53.22;42.95;;;-1.80;99.90;;;;;;4985745;28;20248;-75
2021/12/23 11:05:31;;;;;;;57.95;45.38;;;-1.80;99.90;;;;;;4979311;28;20022;-74
2021/12/23 11:35:46;;;;;;;62.47;45.55;;;-1.70;99.90;;;;;;4992666;28;20155;-75
2021/12/23 11:36:04;;;;;;;63.88;39.20;;;-1.60;99.90;;;;;;4986568;28;20033;-75
2021/12/23 11:43:48;;;;;;;55.85;44.05;;;-1.70;99.90;;;;;;4982337;28;20031;-76
2021/12/23 11:46:16;;;;;;;58.97;46.40;;;-1.60;99.90;;;;;;4986529;28;20395;-75
2021/12/23 11:48:43;;;;;;;55.65;42.97;;;-1.60;99.90;;;;;;4973620;28;20081;-75
2021/12/23 11:51:16;;;;;;;58.50;43.22;;;-1.50;99.90;;;;;;4978180;28;20508;-75
2021/12/23 11:53:47;;;;;;;58.38;44.03;;;-1.50;99.90;;;;;;4979519;28;20023;-75
2021/12/23 11:56:14;;;;;;;61.63;44.47;;;-1.50;99.90;;;;;;4973466;28;20038;-75
2021/12/23 11:58:43;;;;;;;55.35;44.03;;;-1.50;99.90;;;;;;4977531;28;20477;-76
2021/12/23 12:01:14;;;;;;;57.60;43.35;;;-1.50;99.90;;;;;;4980194;28;20026;-76
2021/12/23 12:03:56;;;;;;;61.08;45.92;;;-1.50;99.90;;;;;;4973379;28;20029;-76
2021/12/23 12:06:26;;;;;;;56.67;43.25;;;-1.50;99.90;;;;;;4972077;28;20023;-76
2021/12/23 12:08:54;;;;;;;58.58;42.95;;;-1.50;99.90;;;;;;4982769;28;20045;-76
2021/12/23 12:11:23;;;;;;;51.65;40.83;;;-1.50;99.90;;;;;;4972863;28;20030;-76
2021/12/23 12:13:49;;;;;;;55.03;41.60;;;-1.50;99.90;;;;;;4972640;28;20023;-76
2021/12/23 12:16:29;;;;;;;55.65;41.17;;;-1.50;99.90;;;;;;4973131;28;20018;-76
2021/12/23 12:18:54;;;;;;;53.53;40.90;;;-1.40;99.90;;;;;;4975946;28;20034;-76
2021/12/23 12:21:23;;;;;;;54.90;42.28;;;-1.40;99.90;;;;;;4972189;28;20026;-75
2021/12/23 12:24:25;;;;;;;54.25;40.92;;;-1.30;99.90;;;;;;4972758;28;20030;-76
2021/12/23 12:27:02;;;;;;;53.50;40.28;;;-1.30;99.90;;;;;;4970987;28;20031;-76
2021/12/23 12:29:36;;;;;;;53.65;41.53;;;-1.30;99.90;;;;;;4972857;28;20023;-76
2021/12/23 12:32:04;;;;;;;56.80;42.78;;;-1.30;99.90;;;;;;4963981;28;20030;-75
2021/12/23 12:34:34;;;;;;;57.33;42.65;;;-1.30;99.90;;;;;;4979107;28;20026;-75
2021/12/23 12:37:01;;;;;;;52.35;40.78;;;-1.20;99.90;;;;;;4976284;28;20098;-75
2021/12/23 12:39:47;;;;;;;52.72;40.15;;;-1.30;99.90;;;;;;4973128;28;20081;-75
2021/12/23 12:42:33;;;;;;;53.67;42.03;;;-1.20;99.90;;;;;;4979463;28;20070;-75
2021/12/23 12:45:09;;;;;;;55.92;41.55;;;-1.10;99.90;;;;;;4976996;28;20037;-75
2021/12/23 12:47:39;;;;;;;56.92;43.05;;;-1.20;99.90;;;;;;4973936;28;20081;-75
2021/12/23 12:50:17;;;;;;;53.90;41.25;;;-1.10;99.90;;;;;;4963849;28;20023;-75
2021/12/23 12:52:45;;;;;;;55.08;41.78;;;-1.10;99.90;;;;;;4970838;28;20023;-75
2021/12/23 12:55:14;;;;;;;52.97;38.83;;;-1.10;99.90;;;;;;4978786;28;20046;-75
2021/12/23 12:58:03;;;;;;;52.75;40.10;;;-1.00;99.90;;;;;;4974888;28;20389;-75
2021/12/23 13:00:39;;;;;;;55.35;41.42;;;-1.00;99.90;;;;;;4974430;28;20031;-75
2021/12/23 13:03:22;;;;;;;51.03;40.22;;;-1.00;99.90;;;;;;4965404;28;20633;-75
2021/12/23 13:05:53;;;;;;;56.97;40.00;;;-1.00;99.90;;;;;;4971704;28;20388;-75
2021/12/23 13:08:35;;;;;;;52.33;39.63;;;-0.90;99.90;;;;;;4968839;28;20026;-75
2021/12/23 13:11:18;;;;;;;54.33;39.95;;;-0.90;99.90;;;;;;4975049;28;20033;-78
2021/12/23 13:13:46;;;;;;;54.38;40.70;;;-0.90;99.90;;;;;;4969269;28;20106;-76
2021/12/23 13:16:25;;;;;;;55.60;41.40;;;-0.90;99.90;;;;;;4968060;28;20027;-76
2021/12/23 13:19:19;;;;;;;55.78;40.65;;;-1.00;99.90;;;;;;4978019;28;20026;-74
2021/12/23 13:21:55;;;;;;;55.63;41.95;;;-1.00;99.90;;;;;;4978846;28;20026;-74
2021/12/23 13:24:22;;;;;;;54.40;41.72;;;-0.90;99.90;;;;;;4979836;28;20489;-74
2021/12/23 13:26:49;;;;;;;55.92;42.15;;;-0.90;99.90;;;;;;4985293;28;20043;-74
2021/12/23 13:29:14;;;;;;;53.13;39.70;;;-0.90;99.90;;;;;;4984766;28;20109;-74
2021/12/23 13:31:42;;;;;;;57.42;42.78;;;-0.90;99.90;;;;;;4978859;28;20070;-74
2021/12/23 13:34:12;;;;;;;58.42;42.95;;;-0.90;99.90;;;;;;4979254;28;20023;-74
2021/12/23 13:36:47;;;;;;;55.53;39.42;;;-0.90;99.90;;;;;;4985820;28;20050;-75
2021/12/23 13:39:16;;;;;;;59.75;41.85;;;-0.80;99.90;;;;;;4985547;28;20027;-75
2021/12/23 13:41:46;;;;;;;58.75;43.95;;;-0.80;99.90;;;;;;4980387;28;20019;-74
2021/12/23 13:44:15;;;;;;;58.88;43.90;;;-0.80;99.90;;;;;;4978572;28;20023;-75